Time;durP1;ratioP1;P1;durP2;ratioP2;P2;SDS_P1;SDS_P2;PMS_P1;PMS_P2;Temp;Humidity;BMP_temperature;BMP_pressure;BME280_temperature;BME280_humidity;BME280_pressure;Samples;Min_cycle;Max_cycle;Signal;HPM_P1;HPM_P2
2023/01/29 00:01:06;730542.00;2.44;1260.24;101765.00;0.34;176.62;;;;;2.90;1.00;;;;;;2272772;41;3637;-88
2023/01/29 00:03:33;953083.00;3.18;1649.55;94811.00;0.32;164.61;;;;;3.00;1.00;;;;;;2267523;56;3760;-87
2023/01/29 00:06:06;873523.00;2.91;1509.66;103549.00;0.35;179.70;;;;;2.90;1.00;;;;;;2260267;61;1537;-88
2023/01/29 00:08:34;685804.00;2.29;1182.63;102231.00;0.34;177.42;;;;;3.00;1.00;;;;;;2280641;41;3594;-88
2023/01/29 00:11:02;781221.00;2.60;1348.39;102067.00;0.34;177.14;;;;;3.10;1.00;;;;;;2275016;40;3587;-86
2023/01/29 00:13:29;816260.00;2.72;1409.50;100065.00;0.33;173.68;;;;;3.10;1.00;;;;;;2297133;40;3623;-88
2023/01/29 00:15:58;718048.00;2.39;1238.55;101378.00;0.34;175.95;;;;;3.20;1.00;;;;;;2260238;61;1730;-87
2023/01/29 00:20:59;1189912.00;3.97;2071.99;100438.00;0.33;174.33;;;;;3.40;1.00;;;;;;2262071;61;1194;-87
2023/01/29 00:23:27;1181436.00;3.94;2056.69;99311.00;0.33;172.38;;;;;3.30;1.00;;;;;;2265759;40;3596;-87
2023/01/29 00:28:24;1345352.00;4.48;2355.35;110316.00;0.37;191.38;;;;;3.20;1.00;;;;;;1488017;56;3542;-88
2023/01/29 00:33:20;1417532.00;4.73;2488.88;117191.00;0.39;203.24;;;;;3.10;1.00;;;;;;1182471;56;3600;-88
2023/01/29 00:46:26;1166485.00;3.89;2029.74;28831.00;0.10;50.56;;;;;3.30;1.00;;;;;;2260092;61;686;-87
2023/01/29 00:51:23;1296535.00;4.32;2265.77;126380.00;0.42;219.09;;;;;3.10;1.00;;;;;;2262236;61;1409;-88
2023/01/29 00:53:53;1008599.00;3.36;1747.71;105192.00;0.35;182.53;;;;;3.10;1.00;;;;;;2260104;61;1405;-87
2023/01/29 00:56:22;936291.00;3.12;1619.95;101001.00;0.34;175.30;;;;;3.30;1.00;;;;;;2271276;40;3748;-88
2023/01/29 01:03:04;1379762.00;4.60;2418.84;103657.00;0.35;179.88;;;;;3.10;1.00;;;;;;2269467;41;3537;-88
2023/01/29 01:04:05;1131586.00;3.77;1967.00;8469.00;0.03;15.30;;;;;3.10;1.00;;;;;;2272340;41;3750;-88
2023/01/29 01:06:32;962177.00;3.21;1665.60;102550.00;0.34;177.97;;;;;3.30;1.00;;;;;;2259977;61;1567;-89
2023/01/29 01:11:34;1378364.00;4.59;2416.26;102434.00;0.34;177.77;;;;;3.30;1.00;;;;;;2271142;41;3556;-88
2023/01/29 01:14:01;428050.00;1.43;738.03;95015.00;0.32;164.97;;;;;3.60;1.00;;;;;;2260032;61;1396;-89
2023/01/29 01:19:00;1071287.00;3.57;1859.15;108995.00;0.36;189.10;;;;;4.20;1.00;;;;;;2261848;61;1388;-87
2023/01/29 01:21:27;806069.00;2.69;1391.71;104624.00;0.35;181.55;;;;;4.70;1.00;;;;;;2283008;56;3782;-86
2023/01/29 01:23:55;666649.00;2.22;1149.45;87734.00;0.29;152.39;;;;;5.00;1.00;;;;;;2276984;41;3777;-87
2023/01/29 01:26:22;738017.00;2.46;1273.23;88026.00;0.29;152.90;;;;;5.10;1.00;;;;;;2259808;61;1608;-86
2023/01/29 01:31:20;1067032.00;3.56;1851.56;115159.00;0.38;199.73;;;;;5.70;1.00;;;;;;2304392;56;3614;-87
2023/01/29 01:38:50;1343473.00;4.48;2351.89;102886.00;0.34;178.55;;;;;4.10;1.00;;;;;;2261253;61;1325;-88
2023/01/29 01:41:20;913742.00;3.05;1580.27;103925.00;0.35;180.35;;;;;4.40;1.00;;;;;;2259825;61;1017;-91
2023/01/29 01:49:02;485715.00;1.62;837.23;117925.00;0.39;204.50;;;;;4.50;1.00;;;;;;1975475;41;3209;-88
2023/01/29 01:51:33;353749.00;1.18;610.30;0.00;0.00;0.62;;;;;4.60;1.00;;;;;;2263434;40;3620;-87
2023/01/29 01:54:06;429126.00;1.43;739.88;0.00;0.00;0.62;;;;;5.00;1.00;;;;;;2279059;40;3677;-87
2023/01/29 01:56:39;504596.00;1.68;869.74;0.00;0.00;0.62;;;;;5.20;1.00;;;;;;2260551;61;1100;-89
2023/01/29 01:59:11;311555.00;1.04;537.78;0.00;0.00;0.62;;;;;5.30;1.00;;;;;;2260567;61;1759;-85
2023/01/29 02:09:53;633393.00;2.11;1091.91;107911.00;0.36;187.23;;;;;5.30;1.00;;;;;;2268495;41;3657;-87
2023/01/29 02:12:22;434050.00;1.45;748.35;0.00;0.00;0.62;;;;;5.30;1.00;;;;;;2260423;61;1792;-87
2023/01/29 02:14:51;594275.00;1.98;1024.34;0.00;0.00;0.62;;;;;5.40;1.00;;;;;;2268385;41;3589;-86
2023/01/29 02:17:20;436623.00;1.46;752.78;0.00;0.00;0.62;;;;;5.20;1.00;;;;;;2267431;40;3624;-87
2023/01/29 02:20:03;572986.00;1.91;987.60;0.00;0.00;0.62;;;;;4.90;1.00;;;;;;2260476;61;1743;-88
2023/01/29 02:22:53;745884.00;2.49;1286.90;108874.00;0.36;188.89;;;;;4.60;1.00;;;;;;2260540;61;1997;-88
2023/01/29 02:25:50;890472.00;2.97;1539.39;103134.00;0.34;178.98;;;;;4.60;1.00;;;;;;2256390;61;924;-87
2023/01/29 02:28:31;823407.00;2.74;1421.98;104286.00;0.35;180.97;;;;;5.10;1.00;;;;;;2256490;61;1738;-89
2023/01/29 02:31:07;763597.00;2.55;1317.71;79033.00;0.26;137.37;;;;;4.70;1.00;;;;;;2267800;55;3737;-87
2023/01/29 02:33:48;632414.00;2.11;1090.22;104206.00;0.35;180.83;;;;;4.50;1.00;;;;;;2260393;61;1590;-88
2023/01/29 02:36:28;1091290.00;3.64;1894.85;111624.00;0.37;193.63;;;;;4.70;1.00;;;;;;2271616;56;3687;-87
2023/01/29 02:44:09;901652.00;3.01;1559.02;0.00;0.00;0.62;;;;;3.70;1.00;;;;;;2262201;61;1904;-87
2023/01/29 02:46:43;550828.00;1.84;949.39;0.00;0.00;0.62;;;;;4.30;1.00;;;;;;2260393;61;1146;-86
2023/01/29 02:49:22;406612.00;1.36;701.17;0.00;0.00;0.62;;;;;4.80;1.00;;;;;;2260513;61;1012;-88
2023/01/29 02:51:59;228804.00;0.76;395.49;0.00;0.00;0.62;;;;;5.30;1.00;;;;;;2263134;40;3590;-87
2023/01/29 02:54:37;513860.00;1.71;885.69;76866.00;0.26;133.62;;;;;5.50;1.00;;;;;;2260448;61;1421;-87
2023/01/29 02:57:13;582679.00;1.94;1004.32;91010.00;0.30;158.05;;;;;4.50;1.00;;;;;;2260158;61;926;-88
2023/01/29 02:59:49;683514.00;2.28;1178.66;94406.00;0.31;163.92;;;;;4.10;1.00;;;;;;2260429;61;1737;-89
2023/01/29 03:02:22;790719.00;2.64;1364.94;101236.00;0.34;175.71;;;;;4.10;1.00;;;;;;2260488;61;1741;-87
2023/01/29 03:10:14;981258.00;3.27;1699.31;106432.00;0.35;184.67;;;;;4.60;1.00;;;;;;2262547;55;3911;-90
2023/01/29 03:12:44;808934.00;2.70;1396.71;94186.00;0.31;163.54;;;;;4.90;1.00;;;;;;2267456;56;3774;-86
2023/01/29 03:15:23;912616.00;3.04;1578.29;96262.00;0.32;167.12;;;;;5.40;1.00;;;;;;2256521;61;1046;-87
2023/01/29 03:17:56;1124466.00;3.75;1954.23;86362.00;0.29;150.03;;;;;5.40;1.00;;;;;;2256513;61;1075;-87
2023/01/29 03:20:28;815632.00;2.72;1408.40;112850.00;0.38;195.75;;;;;4.80;1.00;;;;;;2256534;61;957;-87
2023/01/29 03:23:01;992411.00;3.31;1719.04;106153.00;0.35;184.19;;;;;4.00;1.00;;;;;;2256309;61;2009;-88
2023/01/29 03:33:59;684188.00;2.28;1179.83;70871.00;0.24;123.27;;;;;4.30;1.00;;;;;;2270114;56;3907;-89
2023/01/29 03:36:36;687118.00;2.29;1184.91;96313.00;0.32;167.21;;;;;4.30;1.00;;;;;;2260383;61;997;-87
2023/01/29 03:39:04;895407.00;2.98;1548.05;103613.00;0.35;179.81;;;;;4.20;1.00;;;;;;2260321;61;1573;-87
2023/01/29 03:41:36;655205.00;2.18;1129.64;103173.00;0.34;179.05;;;;;4.20;1.00;;;;;;2260302;61;1554;-88
2023/01/29 03:44:13;878792.00;2.93;1518.90;101314.00;0.34;175.84;;;;;4.20;1.00;;;;;;2260255;61;2013;-87
2023/01/29 03:49:31;1077123.00;3.59;1869.56;105848.00;0.35;183.67;;;;;4.00;1.00;;;;;;2263151;61;1333;-87
2023/01/29 03:52:03;1076205.00;3.59;1867.92;112364.00;0.37;194.91;;;;;4.50;1.00;;;;;;2260187;61;1602;-88
2023/01/29 03:54:39;891396.00;2.97;1541.01;98867.00;0.33;171.62;;;;;4.40;1.00;;;;;;2260380;61;1415;-88
2023/01/29 03:57:15;833866.00;2.78;1440.25;101477.00;0.34;176.12;;;;;4.00;1.00;;;;;;2260228;61;1576;-87
2023/01/29 03:59:53;942794.00;3.14;1631.41;101616.00;0.34;176.36;;;;;3.90;1.00;;;;;;2260369;61;1520;-88
2023/01/29 04:02:27;881323.00;2.94;1523.34;0.00;0.00;0.62;;;;;3.90;1.00;;;;;;2260316;61;1321;-86
2023/01/29 04:05:01;1157647.00;3.86;2013.83;8387.00;0.03;15.15;;;;;4.00;1.00;;;;;;2260168;61;2014;-88
2023/01/29 04:07:32;1025900.00;3.42;1778.40;16336.00;0.05;28.92;;;;;3.80;1.00;;;;;;2260421;61;992;-87
2023/01/29 04:12:36;1356559.00;4.52;2376.00;0.00;0.00;0.62;;;;;4.00;1.00;;;;;;2261776;61;1398;-87
2023/01/29 04:15:09;1055722.00;3.52;1831.42;0.00;0.00;0.62;;;;;4.30;1.00;;;;;;2260232;61;1323;-86
2023/01/29 04:17:41;1062904.00;3.54;1844.21;10688.00;0.04;19.14;;;;;4.30;1.00;;;;;;2260055;61;1717;-87
2023/01/29 04:20:11;1256477.00;4.19;2192.67;78940.00;0.26;137.21;;;;;4.60;1.00;;;;;;2260115;61;1625;-88
2023/01/29 04:22:42;815567.00;2.72;1408.29;0.00;0.00;0.62;;;;;4.50;1.00;;;;;;2260052;61;1070;-86
2023/01/29 04:27:57;557946.00;1.86;961.66;0.00;0.00;0.62;;;;;4.70;1.00;;;;;;2263655;56;1656;-86
2023/01/29 04:30:35;469880.00;1.57;809.98;0.00;0.00;0.62;;;;;4.50;1.00;;;;;;2268065;41;3626;-86
2023/01/29 04:33:18;688640.00;2.30;1187.54;0.00;0.00;0.62;;;;;4.50;1.00;;;;;;2275869;40;3627;-87
2023/01/29 04:36:06;492511.00;1.64;848.93;0.00;0.00;0.62;;;;;4.80;1.00;;;;;;2260880;61;1507;-89
2023/01/29 04:41:16;720817.00;2.40;1243.36;0.00;0.00;0.62;;;;;5.20;1.00;;;;;;2262712;61;1314;-86
2023/01/29 04:43:55;561643.00;1.87;968.03;9947.00;0.03;17.86;;;;;5.40;1.00;;;;;;2260833;61;2007;-88
2023/01/29 04:46:31;335546.00;1.12;579.02;0.00;0.00;0.62;;;;;4.90;1.00;;;;;;2260969;61;415;-87
2023/01/29 04:49:16;549964.00;1.83;947.90;0.00;0.00;0.62;;;;;4.70;1.00;;;;;;2260096;61;977;-88
2023/01/29 04:51:56;525939.00;1.75;906.50;0.00;0.00;0.62;;;;;4.50;1.00;;;;;;2259954;61;1510;-87
2023/01/29 04:54:38;671560.00;2.24;1157.95;38539.00;0.13;67.36;;;;;4.80;1.00;;;;;;2259849;61;1431;-87
2023/01/29 04:57:13;337640.00;1.13;582.62;0.00;0.00;0.62;;;;;4.10;1.00;;;;;;2260047;61;1725;-88
2023/01/29 04:59:47;464622.00;1.55;800.94;0.00;0.00;0.62;;;;;3.90;1.00;;;;;;2260123;61;1729;-86
2023/01/29 05:02:14;501942.00;1.67;865.17;0.00;0.00;0.62;;;;;4.00;1.00;;;;;;2260064;61;889;-86
2023/01/29 05:04:44;517500.00;1.73;891.96;0.00;0.00;0.62;;;;;4.10;1.00;;;;;;2259996;61;1935;-88
2023/01/29 05:07:16;431622.00;1.44;744.17;0.00;0.00;0.62;;;;;4.40;1.00;;;;;;2263993;56;3748;-87
2023/01/29 05:09:46;366774.00;1.22;632.69;0.00;0.00;0.62;;;;;4.70;1.00;;;;;;2271374;56;3752;-88
2023/01/29 05:12:17;285880.00;0.95;493.65;0.00;0.00;0.62;;;;;5.00;1.00;;;;;;2259975;61;957;-87
2023/01/29 05:14:46;390847.00;1.30;674.07;0.00;0.00;0.62;;;;;5.30;1.00;;;;;;2261966;55;3828;-88
2023/01/29 05:19:43;819178.00;2.73;1414.59;0.00;0.00;0.62;;;;;4.30;1.00;;;;;;2261602;61;1436;-87
2023/01/29 05:22:11;518831.00;1.73;894.25;0.00;0.00;0.62;;;;;3.90;1.00;;;;;;2264688;40;3583;-84
2023/01/29 05:24:39;642095.00;2.14;1106.96;0.00;0.00;0.62;;;;;3.90;1.00;;;;;;2261866;61;1914;-87
2023/01/29 05:29:51;420289.00;1.40;724.69;0.00;0.00;0.62;;;;;3.90;1.00;;;;;;2264446;40;3921;-86
2023/01/29 05:32:18;445411.00;1.48;767.89;0.00;0.00;0.62;;;;;4.20;1.00;;;;;;2259897;61;1108;-87
2023/01/29 05:34:45;328559.00;1.10;567.01;0.00;0.00;0.62;;;;;4.60;1.00;;;;;;2260126;61;1282;-87
2023/01/29 05:39:47;433076.00;1.44;746.68;0.00;0.00;0.62;;;;;4.90;1.00;;;;;;2261767;61;1362;-86
2023/01/29 05:42:14;517858.00;1.73;892.58;0.00;0.00;0.62;;;;;5.00;1.00;;;;;;2259959;61;1023;-88
2023/01/29 05:44:41;464718.00;1.55;801.10;0.00;0.00;0.62;;;;;5.00;1.00;;;;;;2259889;61;1918;-88
2023/01/29 05:47:08;292178.00;0.97;504.47;0.00;0.00;0.62;;;;;5.20;1.00;;;;;;2259922;61;977;-88
2023/01/29 05:49:35;537846.00;1.79;927.01;24557.00;0.08;43.16;;;;;5.30;1.00;;;;;;2259976;61;1129;-87
2023/01/29 05:52:02;351867.00;1.17;607.07;0.00;0.00;0.62;;;;;5.40;1.00;;;;;;2259950;61;1559;-86
2023/01/29 05:54:29;547736.00;1.83;944.06;0.00;0.00;0.62;;;;;5.40;1.00;;;;;;2259791;61;2268;-90
2023/01/29 05:56:57;465505.00;1.55;802.46;0.00;0.00;0.62;;;;;5.40;1.00;;;;;;2260003;61;1047;-86
2023/01/29 05:59:25;315520.00;1.05;544.60;0.00;0.00;0.62;;;;;5.30;1.00;;;;;;2267800;40;3592;-87
2023/01/29 06:01:52;372969.00;1.24;643.34;0.00;0.00;0.62;;;;;4.90;1.00;;;;;;2260080;61;1091;-87
2023/01/29 06:04:19;549504.00;1.83;947.10;0.00;0.00;0.62;;;;;4.80;1.00;;;;;;2259879;61;1996;-87
2023/01/29 06:06:46;418188.00;1.39;721.07;0.00;0.00;0.62;;;;;5.10;1.00;;;;;;2260051;61;1018;-88
2023/01/29 06:09:13;305613.00;1.02;527.57;0.00;0.00;0.62;;;;;5.40;1.00;;;;;;2260010;61;1106;-89
2023/01/29 06:11:40;306603.00;1.02;529.27;0.00;0.00;0.62;;;;;5.60;1.00;;;;;;2259945;61;1466;-87
2023/01/29 06:14:08;230192.00;0.77;397.88;0.00;0.00;0.62;;;;;5.60;1.00;;;;;;2260073;61;1298;-88
2023/01/29 06:16:35;396632.00;1.32;684.02;0.00;0.00;0.62;;;;;5.70;1.00;;;;;;2259916;61;1008;-88
2023/01/29 06:19:02;505356.00;1.68;871.05;19687.00;0.07;34.73;;;;;5.60;1.00;;;;;;2260090;61;1026;-88
2023/01/29 06:21:29;515675.00;1.72;888.82;0.00;0.00;0.62;;;;;5.70;1.00;;;;;;2259808;61;898;-86
2023/01/29 06:23:56;117390720.00;391.30;65528428.00;0.00;0.00;0.62;;;;;5.70;1.00;;;;;;2259856;61;2012;-88
2023/01/29 06:26:23;355794.00;1.19;613.82;0.00;0.00;0.62;;;;;5.70;1.00;;;;;;2268309;40;3606;-87
2023/01/29 06:28:51;728914.00;2.43;1257.42;0.00;0.00;0.62;;;;;5.80;1.00;;;;;;2259555;61;1998;-87
2023/01/29 06:31:19;322404.00;1.07;556.43;0.00;0.00;0.62;;;;;5.90;1.00;;;;;;2259809;61;1650;-88
2023/01/29 06:33:46;260196.00;0.87;449.49;0.00;0.00;0.62;;;;;6.20;1.00;;;;;;2267137;55;3786;-88
2023/01/29 06:36:13;328544.00;1.10;566.98;0.00;0.00;0.62;;;;;6.30;1.00;;;;;;2260474;61;1656;-87
2023/01/29 06:38:40;475983.00;1.59;820.48;0.00;0.00;0.62;;;;;6.10;1.00;;;;;;2260510;61;960;-87
2023/01/29 06:43:40;453172.00;1.51;781.24;0.00;0.00;0.62;;;;;5.90;1.00;;;;;;2262472;61;1916;-86
2023/01/29 06:46:08;181789.00;0.61;314.57;0.00;0.00;0.62;;;;;5.70;1.00;;;;;;2260547;61;1056;-87
2023/01/29 06:48:36;319671.00;1.07;551.73;0.00;0.00;0.62;;;;;5.50;1.00;;;;;;2260593;61;921;-86
2023/01/29 06:51:05;331791.00;1.11;572.56;0.00;0.00;0.62;;;;;5.60;1.00;;;;;;2260551;61;924;-88
2023/01/29 06:53:33;529638.00;1.77;912.87;0.00;0.00;0.62;;;;;5.70;1.00;;;;;;2260273;61;1347;-86
2023/01/29 06:56:00;282096.00;0.94;487.14;0.00;0.00;0.62;;;;;5.70;1.00;;;;;;2260449;61;917;-87
2023/01/29 06:58:27;481814.00;1.61;830.52;29545.00;0.10;51.80;;;;;5.60;1.00;;;;;;2260337;61;1546;-88
2023/01/29 07:00:54;339103.00;1.13;585.13;0.00;0.00;0.62;;;;;5.40;1.00;;;;;;2260451;61;2062;-88
2023/01/29 07:03:23;479270.00;1.60;826.14;0.00;0.00;0.62;;;;;5.30;1.00;;;;;;2260354;61;1432;-87
2023/01/29 07:05:53;434453.00;1.45;749.04;0.00;0.00;0.62;;;;;5.30;1.00;;;;;;2260333;61;2010;-89
2023/01/29 07:08:21;188921.00;0.63;326.85;0.00;0.00;0.62;;;;;5.40;1.00;;;;;;2260370;61;1089;-87
2023/01/29 07:10:49;168316.00;0.56;291.37;0.00;0.00;0.62;;;;;5.40;1.00;;;;;;2260408;61;929;-87
2023/01/29 07:13:16;316068.00;1.05;545.54;0.00;0.00;0.62;;;;;5.40;1.00;;;;;;2260346;61;1427;-87
2023/01/29 07:15:43;395650.00;1.32;682.33;0.00;0.00;0.62;;;;;5.40;1.00;;;;;;2260257;61;1084;-87
2023/01/29 07:18:11;405717.00;1.35;699.63;0.00;0.00;0.62;;;;;5.50;1.00;;;;;;2260401;61;1000;-88
2023/01/29 07:20:40;289478.00;0.96;499.83;0.00;0.00;0.62;;;;;5.50;1.00;;;;;;2260335;61;1095;-87
2023/01/29 07:23:11;494362.00;1.65;852.12;0.00;0.00;0.62;;;;;5.50;1.00;;;;;;2260179;61;2144;-89
2023/01/29 07:25:39;388896.00;1.30;670.72;0.00;0.00;0.62;;;;;5.60;1.00;;;;;;2260168;61;2005;-87
2023/01/29 07:28:07;322956.00;1.08;557.38;0.00;0.00;0.62;;;;;5.70;1.00;;;;;;2260344;61;926;-87
2023/01/29 07:30:35;449056.00;1.50;774.16;0.00;0.00;0.62;;;;;5.60;1.00;;;;;;2260327;61;972;-88
2023/01/29 07:33:03;371088.00;1.24;640.11;0.00;0.00;0.62;;;;;5.50;1.00;;;;;;2260242;61;1377;-87
2023/01/29 07:35:30;419316.00;1.40;723.01;0.00;0.00;0.62;;;;;5.50;1.00;;;;;;2260207;61;1031;-88
2023/01/29 07:37:57;205517.00;0.69;355.42;0.00;0.00;0.62;;;;;5.70;1.00;;;;;;2260313;61;1588;-87
2023/01/29 07:40:26;411168.00;1.37;709.01;0.00;0.00;0.62;;;;;5.50;1.00;;;;;;2260190;61;1559;-86
2023/01/29 07:42:58;398417.00;1.33;687.08;0.00;0.00;0.62;;;;;5.50;1.00;;;;;;2259935;61;1324;-86
2023/01/29 07:45:25;183035.00;0.61;316.72;0.00;0.00;0.62;;;;;5.50;1.00;;;;;;2259911;61;1920;-87
2023/01/29 07:47:53;476458.00;1.59;821.30;0.00;0.00;0.62;;;;;5.50;1.00;;;;;;2260334;61;997;-86
2023/01/29 07:50:20;400050.00;1.33;689.89;0.00;0.00;0.62;;;;;5.70;1.00;;;;;;2260177;61;1079;-89
2023/01/29 07:52:47;435983.00;1.45;751.67;0.00;0.00;0.62;;;;;5.80;1.00;;;;;;2260136;61;1274;-87
2023/01/29 07:55:14;326559.00;1.09;563.57;0.00;0.00;0.62;;;;;5.80;1.00;;;;;;2260093;61;1567;-86
2023/01/29 07:57:43;308857.00;1.03;533.14;0.00;0.00;0.62;;;;;5.40;1.00;;;;;;2260254;61;1042;-87
2023/01/29 08:00:12;555705.00;1.85;957.79;0.00;0.00;0.62;;;;;5.40;1.00;;;;;;2260143;61;979;-86
2023/01/29 08:02:39;360475.00;1.20;621.87;0.00;0.00;0.62;;;;;5.70;1.00;;;;;;2260196;61;1134;-87
2023/01/29 08:05:07;423917.00;1.41;730.93;0.00;0.00;0.62;;;;;5.60;1.00;;;;;;2260038;61;1995;-88
2023/01/29 08:07:34;340572.00;1.14;587.66;0.00;0.00;0.62;;;;;5.40;1.00;;;;;;2260172;61;1056;-87
2023/01/29 08:10:01;435770.00;1.45;751.31;0.00;0.00;0.62;;;;;5.60;1.00;;;;;;2260159;61;1033;-89
2023/01/29 08:12:28;389066.00;1.30;671.01;0.00;0.00;0.62;;;;;5.60;1.00;;;;;;2260228;61;984;-88
2023/01/29 08:14:56;375149.00;1.25;647.09;0.00;0.00;0.62;;;;;5.70;1.00;;;;;;2260137;61;1584;-87
2023/01/29 08:17:26;461489.00;1.54;795.55;0.00;0.00;0.62;;;;;5.90;1.00;;;;;;2260078;61;1045;-87
2023/01/29 08:19:53;310010.00;1.03;535.13;0.00;0.00;0.62;;;;;6.10;1.00;;;;;;2260098;61;1107;-86
2023/01/29 08:22:20;318401.00;1.06;549.55;0.00;0.00;0.62;;;;;6.00;1.00;;;;;;2260221;61;918;-87
2023/01/29 08:24:47;618381.00;2.06;1065.97;0.00;0.00;0.62;;;;;5.90;1.00;;;;;;2260011;61;2001;-87
2023/01/29 08:27:14;213332.00;0.71;368.87;0.00;0.00;0.62;;;;;5.80;1.00;;;;;;2260037;61;1574;-89
2023/01/29 08:29:40;329548.00;1.10;568.71;0.00;0.00;0.62;;;;;5.70;1.00;;;;;;2260130;61;1752;-86
2023/01/29 08:32:11;543705.00;1.81;937.11;0.00;0.00;0.62;;;;;5.70;1.00;;;;;;2259999;61;1667;-87
2023/01/29 08:34:37;370811.00;1.24;639.63;0.00;0.00;0.62;;;;;5.80;1.00;;;;;;2259944;61;1586;-85
2023/01/29 08:37:04;302935.00;1.01;522.97;0.00;0.00;0.62;;;;;6.20;1.00;;;;;;2260095;61;2481;-86
2023/01/29 08:39:31;424052.00;1.41;731.16;0.00;0.00;0.62;;;;;6.50;1.00;;;;;;2259972;61;1087;-88
2023/01/29 08:41:58;273067.00;0.91;471.62;0.00;0.00;0.62;;;;;6.40;1.00;;;;;;2260008;61;959;-87
2023/01/29 08:44:25;466275.00;1.55;803.78;0.00;0.00;0.62;;;;;6.40;1.00;;;;;;2259971;61;2010;-87
2023/01/29 08:46:52;348983.00;1.16;602.11;0.00;0.00;0.62;;;;;6.50;1.00;;;;;;2260017;61;1598;-87
2023/01/29 08:49:20;360006.00;1.20;621.06;0.00;0.00;0.62;;;;;6.50;1.00;;;;;;2259956;61;1098;-87
2023/01/29 08:51:47;572665.00;1.91;987.04;0.00;0.00;0.62;;;;;6.40;1.00;;;;;;2260012;61;983;-89
2023/01/29 08:54:14;321200.00;1.07;554.36;0.00;0.00;0.62;;;;;6.40;1.00;;;;;;2260046;61;1533;-88
2023/01/29 08:56:41;340401.00;1.13;587.36;0.00;0.00;0.62;;;;;6.70;1.00;;;;;;2260052;61;1745;-86
2023/01/29 08:59:09;279133.00;0.93;482.05;0.00;0.00;0.62;;;;;6.50;1.00;;;;;;2259959;61;1133;-89
2023/01/29 09:01:36;668245.00;2.23;1152.21;0.00;0.00;0.62;;;;;6.50;1.00;;;;;;2264400;56;3808;-88
2023/01/29 09:04:03;445926.00;1.49;768.78;0.00;0.00;0.62;;;;;6.40;1.00;;;;;;2270894;56;3806;-89
2023/01/29 09:06:31;364360.00;1.21;628.54;0.00;0.00;0.62;;;;;6.50;1.00;;;;;;2259898;61;1928;-88
2023/01/29 09:08:58;1101340.00;3.67;1912.82;16278.00;0.05;28.82;;;;;6.50;1.00;;;;;;2259921;61;1029;-88
2023/01/29 09:11:25;568246.00;1.89;979.42;0.00;0.00;0.62;;;;;6.50;1.00;;;;;;2259947;61;1470;-90
2023/01/29 09:13:52;545318.00;1.82;939.89;0.00;0.00;0.62;;;;;6.40;1.00;;;;;;2259839;61;1562;-88
2023/01/29 09:16:19;545295.00;1.82;939.85;0.00;0.00;0.62;;;;;6.60;1.00;;;;;;2275650;41;3617;-88
2023/01/29 09:18:46;396691.00;1.32;684.12;0.00;0.00;0.62;;;;;6.60;1.00;;;;;;2259803;61;1664;-89
2023/01/29 09:21:13;404219.00;1.35;697.06;0.00;0.00;0.62;;;;;6.50;1.00;;;;;;2259878;61;1009;-87
2023/01/29 09:23:41;372244.00;1.24;642.09;0.00;0.00;0.62;;;;;6.40;1.00;;;;;;2259793;61;1690;-88
2023/01/29 09:26:08;330066.00;1.10;569.60;0.00;0.00;0.62;;;;;6.60;1.00;;;;;;2259769;61;2010;-87
2023/01/29 09:28:35;524420.00;1.75;903.88;0.00;0.00;0.62;;;;;6.60;1.00;;;;;;2259727;61;1424;-87
2023/01/29 09:31:02;447945.00;1.49;772.25;0.00;0.00;0.62;;;;;6.70;1.00;;;;;;2259838;61;1645;-87
2023/01/29 09:33:29;117490144.00;391.63;65695216.00;0.00;0.00;0.62;;;;;6.80;1.00;;;;;;2267912;41;3614;-90
2023/01/29 09:35:56;542322.00;1.81;934.72;0.00;0.00;0.62;;;;;6.60;1.00;;;;;;2259685;61;1661;-87
2023/01/29 09:43:32;430680.00;1.44;742.55;0.00;0.00;0.62;;;;;6.50;1.00;;;;;;2261129;61;1343;-87
2023/01/29 09:48:34;678301.00;2.26;1169.63;0.00;0.00;0.62;;;;;6.70;1.00;;;;;;2261568;61;1407;-89
2023/01/29 09:51:07;536298.00;1.79;924.34;0.00;0.00;0.62;;;;;6.70;1.00;;;;;;2267181;56;3771;-89
2023/01/29 09:53:43;746853.00;2.49;1288.59;0.00;0.00;0.62;;;;;6.70;1.00;;;;;;2297470;56;3686;-88
2023/01/29 09:56:16;442861.00;1.48;763.50;0.00;0.00;0.62;;;;;6.60;1.00;;;;;;2285536;41;3567;-88
2023/01/29 10:01:22;686543.00;2.29;1183.91;0.00;0.00;0.62;;;;;6.70;1.00;;;;;;2262103;61;1346;-90
2023/01/29 10:11:32;1022859.00;3.41;1773.00;103156.00;0.34;179.02;;;;;6.80;1.00;;;;;;2295998;56;3590;-88
2023/01/29 10:14:11;713123.00;2.38;1230.00;92391.00;0.31;160.44;;;;;6.70;1.00;;;;;;2267629;56;3739;-87
2023/01/29 10:16:52;1006294.00;3.35;1743.62;101582.00;0.34;176.30;;;;;6.80;1.00;;;;;;2281378;40;3617;-88
2023/01/29 10:19:54;877599.00;2.93;1516.81;95787.00;0.32;166.30;;;;;6.80;1.00;;;;;;2276207;41;3577;-87
2023/01/29 10:32:30;901291.00;3.00;1558.39;103472.00;0.34;179.56;;;;;7.00;1.00;;;;;;814435;56;3672;-87
2023/01/29 10:42:44;804346.00;2.68;1388.70;102549.00;0.34;177.97;;;;;7.30;1.00;;;;;;1573324;41;3589;-89
2023/01/29 10:50:25;1269946.00;4.23;2217.21;92345.00;0.31;160.36;;;;;7.50;1.00;;;;;;2271706;41;3524;-89
2023/01/29 10:53:27;566714.00;1.89;976.78;0.00;0.00;0.62;;;;;7.30;1.00;;;;;;2272107;56;3730;-88
2023/01/29 11:11:09;828941.00;2.76;1431.64;0.00;0.00;0.62;;;;;8.30;1.00;;;;;;2288028;41;3709;-87
2023/01/29 11:23:45;876951.00;2.92;1515.67;0.00;0.00;0.62;;;;;8.10;1.00;;;;;;2269284;56;3632;-89
2023/01/29 12:37:37;1018007.00;3.39;1764.39;0.00;0.00;0.62;;;;;7.10;1.00;;;;;;2491454;56;3609;31
2023/01/29 13:46:10;1620240.00;5.40;2871.48;98924.00;0.33;171.71;;;;;7.10;1.00;;;;;;2401579;41;3489;-87
2023/01/29 13:48:43;790144.00;2.63;1363.94;0.00;0.00;0.62;;;;;6.90;1.00;;;;;;2262225;40;3612;-87
2023/01/29 13:51:18;817339.00;2.72;1411.38;0.00;0.00;0.62;;;;;7.60;1.00;;;;;;2259793;61;1138;-88
2023/01/29 13:53:55;761831.00;2.54;1314.64;0.00;0.00;0.62;;;;;8.00;1.00;;;;;;2294083;40;3606;-87
2023/01/29 13:56:47;1050745.00;3.50;1822.56;0.00;0.00;0.62;;;;;8.40;1.00;;;;;;2281639;40;3765;-87
2023/01/29 13:59:45;603041.00;2.01;1039.47;0.00;0.00;0.62;;;;;8.40;1.00;;;;;;2267293;41;3585;-87
2023/01/29 14:02:26;509953.00;1.70;878.96;0.00;0.00;0.62;;;;;8.20;1.00;;;;;;2259453;61;1150;-87
2023/01/29 14:05:27;492169.00;1.64;848.34;0.00;0.00;0.62;;;;;8.10;1.00;;;;;;2259552;61;1693;-87
2023/01/29 14:07:58;593424.00;1.98;1022.87;0.00;0.00;0.62;;;;;8.00;1.00;;;;;;2286083;40;3738;-88
2023/01/29 14:10:28;712320.00;2.37;1228.61;19678.00;0.07;34.71;;;;;8.00;1.00;;;;;;2259506;61;985;-87
2023/01/29 14:13:28;695528.00;2.32;1199.48;3341.00;0.01;6.41;;;;;8.10;1.00;;;;;;2272669;40;3825;-88
2023/01/29 14:16:34;516515.00;1.72;890.26;0.00;0.00;0.62;;;;;8.40;1.00;;;;;;2259647;61;917;-88
2023/01/29 14:19:06;390494.00;1.30;673.46;0.00;0.00;0.62;;;;;8.50;1.00;;;;;;2259605;61;1751;-87
2023/01/29 14:24:18;970347.00;3.23;1680.02;0.00;0.00;0.62;;;;;7.90;1.00;;;;;;2260817;61;1386;-88
2023/01/29 14:26:49;544756.00;1.82;938.92;16537.00;0.06;29.27;;;;;8.30;1.00;;;;;;2259547;61;1923;-88
2023/01/29 14:37:01;552134.00;1.84;951.64;0.00;0.00;0.62;;;;;8.30;1.00;;;;;;1951083;56;3578;-88
2023/01/29 14:39:44;775427.00;2.58;1338.30;0.00;0.00;0.62;;;;;8.30;1.00;;;;;;2266767;56;3780;-87
2023/01/29 14:56:18;558987.00;1.86;963.45;0.00;0.00;0.62;;;;;8.70;1.00;;;;;;2545832;39;1543719;-82
2023/01/29 14:58:49;596505.00;1.99;1028.19;0.00;0.00;0.62;;;;;8.10;1.00;;;;;;2582276;40;3685;-88
2023/01/29 15:01:23;625382.00;2.08;1078.07;0.00;0.00;0.62;;;;;8.00;1.00;;;;;;2582346;40;3547;-87
2023/01/29 15:06:27;828945.00;2.76;1431.65;65205.00;0.22;113.47;;;;;7.60;1.00;;;;;;2577573;55;637;-88
2023/01/29 15:09:05;723788.00;2.41;1248.51;0.00;0.00;0.62;;;;;7.40;1.00;;;;;;2576861;55;3682;-87
2023/01/29 15:11:43;704527.00;2.35;1215.09;0.00;0.00;0.62;;;;;7.40;1.00;;;;;;2574725;55;1018;-87
2023/01/29 15:14:23;526440.00;1.75;907.36;0.00;0.00;0.62;;;;;7.70;1.00;;;;;;2579055;55;1596;-89
2023/01/29 15:17:06;758024.00;2.53;1308.01;0.00;0.00;0.62;;;;;8.00;1.00;;;;;;2577207;40;3539;-87
2023/01/29 15:19:44;264535.00;0.88;456.95;0.00;0.00;0.62;;;;;7.90;1.00;;;;;;2577912;55;1113;-88
2023/01/29 15:22:16;676696.00;2.26;1166.85;0.00;0.00;0.62;;;;;8.10;1.00;;;;;;2579102;55;1909;-87
2023/01/29 15:24:45;555652.00;1.85;957.70;19273.00;0.06;34.01;;;;;7.80;1.00;;;;;;2572765;40;3634;-87
2023/01/29 15:27:19;666125.00;2.22;1148.54;0.00;0.00;0.62;;;;;7.60;1.00;;;;;;2577574;40;3643;-87